sensor_id;sensor_type;location;lat;lon;timestamp;P1;durP1;ratioP1;P2;durP2;ratioP2
21721;SDS011;11023;48.274;7.794;2023-05-20T00:00:07;7.25;;;4.65;;
21721;SDS011;11023;48.274;7.794;2023-05-20T00:02:35;7.85;;;4.45;;
21721;SDS011;11023;48.274;7.794;2023-05-20T00:05:00;6.82;;;4.30;;
21721;SDS011;11023;48.274;7.794;2023-05-20T00:07:26;7.55;;;4.38;;
21721;SDS011;11023;48.274;7.794;2023-05-20T00:09:52;9.40;;;4.47;;
21721;SDS011;11023;48.274;7.794;2023-05-20T00:12:17;8.32;;;4.70;;
21721;SDS011;11023;48.274;7.794;2023-05-20T00:14:43;8.75;;;4.80;;
21721;SDS011;11023;48.274;7.794;2023-05-20T00:17:08;9.00;;;4.70;;
21721;SDS011;11023;48.274;7.794;2023-05-20T00:19:34;7.82;;;4.30;;
21721;SDS011;11023;48.274;7.794;2023-05-20T00:22:00;8.75;;;4.70;;
21721;SDS011;11023;48.274;7.794;2023-05-20T00:24:25;8.27;;;4.60;;
21721;SDS011;11023;48.274;7.794;2023-05-20T00:26:51;9.43;;;5.28;;
21721;SDS011;11023;48.274;7.794;2023-05-20T00:29:18;10.20;;;5.28;;
21721;SDS011;11023;48.274;7.794;2023-05-20T00:31:45;9.35;;;4.43;;
21721;SDS011;11023;48.274;7.794;2023-05-20T00:34:11;8.48;;;5.05;;
21721;SDS011;11023;48.274;7.794;2023-05-20T00:36:37;8.63;;;5.03;;
21721;SDS011;11023;48.274;7.794;2023-05-20T00:39:03;6.40;;;4.82;;
21721;SDS011;11023;48.274;7.794;2023-05-20T00:41:28;7.72;;;4.93;;
21721;SDS011;11023;48.274;7.794;2023-05-20T00:43:54;7.72;;;4.60;;
21721;SDS011;11023;48.274;7.794;2023-05-20T00:46:21;9.63;;;4.70;;
21721;SDS011;11023;48.274;7.794;2023-05-20T00:48:48;8.98;;;4.78;;
21721;SDS011;11023;48.274;7.794;2023-05-20T00:51:14;8.27;;;5.10;;
21721;SDS011;11023;48.274;7.794;2023-05-20T00:53:40;10.38;;;4.88;;
21721;SDS011;11023;48.274;7.794;2023-05-20T00:56:07;8.43;;;4.93;;
21721;SDS011;11023;48.274;7.794;2023-05-20T00:58:34;7.07;;;4.68;;
21721;SDS011;11023;48.274;7.794;2023-05-20T01:01:03;8.45;;;5.10;;
21721;SDS011;11023;48.274;7.794;2023-05-20T01:03:29;8.05;;;4.70;;
21721;SDS011;11023;48.274;7.794;2023-05-20T01:05:54;7.80;;;4.75;;
21721;SDS011;11023;48.274;7.794;2023-05-20T01:08:21;8.15;;;4.47;;
21721;SDS011;11023;48.274;7.794;2023-05-20T01:10:50;8.15;;;4.47;;
21721;SDS011;11023;48.274;7.794;2023-05-20T01:13:25;12.95;;;4.80;;
21721;SDS011;11023;48.274;7.794;2023-05-20T01:15:56;11.05;;;4.72;;
21721;SDS011;11023;48.274;7.794;2023-05-20T01:18:24;7.60;;;4.40;;
21721;SDS011;11023;48.274;7.794;2023-05-20T01:20:55;10.68;;;4.65;;
21721;SDS011;11023;48.274;7.794;2023-05-20T01:23:30;6.72;;;4.22;;
21721;SDS011;11023;48.274;7.794;2023-05-20T01:26:05;7.40;;;4.55;;
21721;SDS011;11023;48.274;7.794;2023-05-20T01:28:32;7.97;;;4.60;;
21721;SDS011;11023;48.274;7.794;2023-05-20T01:30:59;9.25;;;5.00;;
21721;SDS011;11023;48.274;7.794;2023-05-20T01:33:28;8.10;;;4.68;;
21721;SDS011;11023;48.274;7.794;2023-05-20T01:35:55;7.38;;;4.50;;
21721;SDS011;11023;48.274;7.794;2023-05-20T01:38:22;8.73;;;4.97;;
21721;SDS011;11023;48.274;7.794;2023-05-20T01:40:49;12.75;;;5.47;;
21721;SDS011;11023;48.274;7.794;2023-05-20T01:43:16;9.25;;;5.38;;
21721;SDS011;11023;48.274;7.794;2023-05-20T01:45:42;8.60;;;5.13;;
21721;SDS011;11023;48.274;7.794;2023-05-20T01:48:09;11.55;;;5.30;;
21721;SDS011;11023;48.274;7.794;2023-05-20T01:50:35;8.10;;;5.20;;
21721;SDS011;11023;48.274;7.794;2023-05-20T01:53:01;9.75;;;5.20;;
21721;SDS011;11023;48.274;7.794;2023-05-20T01:55:27;10.68;;;5.50;;
21721;SDS011;11023;48.274;7.794;2023-05-20T01:57:53;8.05;;;5.05;;
21721;SDS011;11023;48.274;7.794;2023-05-20T02:00:19;10.93;;;5.22;;
21721;SDS011;11023;48.274;7.794;2023-05-20T02:02:45;9.35;;;5.50;;
21721;SDS011;11023;48.274;7.794;2023-05-20T02:05:11;9.52;;;5.15;;
21721;SDS011;11023;48.274;7.794;2023-05-20T02:07:36;7.70;;;5.10;;
21721;SDS011;11023;48.274;7.794;2023-05-20T02:10:02;9.02;;;5.68;;
21721;SDS011;11023;48.274;7.794;2023-05-20T02:12:28;9.98;;;4.97;;
21721;SDS011;11023;48.274;7.794;2023-05-20T02:14:54;10.57;;;5.63;;
21721;SDS011;11023;48.274;7.794;2023-05-20T02:17:19;10.50;;;5.18;;
21721;SDS011;11023;48.274;7.794;2023-05-20T02:19:45;10.45;;;5.45;;
21721;SDS011;11023;48.274;7.794;2023-05-20T02:22:11;9.70;;;5.45;;
21721;SDS011;11023;48.274;7.794;2023-05-20T02:24:37;11.23;;;5.70;;
21721;SDS011;11023;48.274;7.794;2023-05-20T02:27:03;10.25;;;5.53;;
21721;SDS011;11023;48.274;7.794;2023-05-20T02:29:30;11.65;;;6.07;;
21721;SDS011;11023;48.274;7.794;2023-05-20T02:31:55;8.60;;;5.63;;
21721;SDS011;11023;48.274;7.794;2023-05-20T02:34:21;13.30;;;5.85;;
21721;SDS011;11023;48.274;7.794;2023-05-20T02:36:47;10.63;;;6.10;;
21721;SDS011;11023;48.274;7.794;2023-05-20T02:39:13;13.73;;;6.07;;
21721;SDS011;11023;48.274;7.794;2023-05-20T02:41:39;8.75;;;6.03;;
21721;SDS011;11023;48.274;7.794;2023-05-20T02:44:05;9.07;;;5.43;;
21721;SDS011;11023;48.274;7.794;2023-05-20T02:46:31;8.88;;;5.53;;
21721;SDS011;11023;48.274;7.794;2023-05-20T02:48:56;10.90;;;5.95;;
21721;SDS011;11023;48.274;7.794;2023-05-20T02:51:22;13.05;;;6.43;;
21721;SDS011;11023;48.274;7.794;2023-05-20T02:53:48;10.50;;;6.28;;
21721;SDS011;11023;48.274;7.794;2023-05-20T02:56:13;11.00;;;6.40;;
21721;SDS011;11023;48.274;7.794;2023-05-20T02:58:40;10.75;;;5.90;;
21721;SDS011;11023;48.274;7.794;2023-05-20T03:01:06;9.27;;;5.70;;
21721;SDS011;11023;48.274;7.794;2023-05-20T03:03:32;9.80;;;5.95;;
21721;SDS011;11023;48.274;7.794;2023-05-20T03:05:57;8.25;;;5.20;;
21721;SDS011;11023;48.274;7.794;2023-05-20T03:08:23;10.55;;;5.72;;
21721;SDS011;11023;48.274;7.794;2023-05-20T03:10:49;11.73;;;6.40;;
21721;SDS011;11023;48.274;7.794;2023-05-20T03:13:15;8.88;;;5.80;;
21721;SDS011;11023;48.274;7.794;2023-05-20T03:15:41;8.68;;;5.80;;
21721;SDS011;11023;48.274;7.794;2023-05-20T03:18:09;13.27;;;5.88;;
21721;SDS011;11023;48.274;7.794;2023-05-20T03:20:36;9.23;;;5.57;;
21721;SDS011;11023;48.274;7.794;2023-05-20T03:23:05;10.85;;;6.05;;
21721;SDS011;11023;48.274;7.794;2023-05-20T03:25:31;7.15;;;5.93;;
21721;SDS011;11023;48.274;7.794;2023-05-20T03:27:57;10.55;;;6.05;;
21721;SDS011;11023;48.274;7.794;2023-05-20T03:30:24;9.30;;;5.85;;
21721;SDS011;11023;48.274;7.794;2023-05-20T03:32:50;7.85;;;5.90;;
21721;SDS011;11023;48.274;7.794;2023-05-20T03:35:16;9.98;;;6.13;;
21721;SDS011;11023;48.274;7.794;2023-05-20T03:37:41;10.48;;;5.85;;
21721;SDS011;11023;48.274;7.794;2023-05-20T03:40:07;12.05;;;5.53;;
21721;SDS011;11023;48.274;7.794;2023-05-20T03:42:37;9.43;;;5.35;;
21721;SDS011;11023;48.274;7.794;2023-05-20T03:45:03;9.88;;;5.35;;
21721;SDS011;11023;48.274;7.794;2023-05-20T03:47:29;11.63;;;5.68;;
21721;SDS011;11023;48.274;7.794;2023-05-20T03:49:55;9.48;;;5.70;;
21721;SDS011;11023;48.274;7.794;2023-05-20T03:52:21;9.95;;;5.65;;
21721;SDS011;11023;48.274;7.794;2023-05-20T03:54:46;10.32;;;5.57;;
21721;SDS011;11023;48.274;7.794;2023-05-20T03:57:12;9.02;;;5.18;;
21721;SDS011;11023;48.274;7.794;2023-05-20T03:59:38;10.20;;;5.38;;
21721;SDS011;11023;48.274;7.794;2023-05-20T04:02:04;11.05;;;5.38;;
21721;SDS011;11023;48.274;7.794;2023-05-20T04:04:30;8.68;;;5.85;;
21721;SDS011;11023;48.274;7.794;2023-05-20T04:06:56;12.00;;;6.43;;
21721;SDS011;11023;48.274;7.794;2023-05-20T04:09:24;10.77;;;6.35;;
21721;SDS011;11023;48.274;7.794;2023-05-20T04:11:50;13.00;;;6.22;;
21721;SDS011;11023;48.274;7.794;2023-05-20T04:14:16;9.85;;;5.85;;
21721;SDS011;11023;48.274;7.794;2023-05-20T04:16:42;10.05;;;5.57;;
21721;SDS011;11023;48.274;7.794;2023-05-20T04:19:09;9.38;;;5.75;;
21721;SDS011;11023;48.274;7.794;2023-05-20T04:21:34;11.15;;;6.05;;
21721;SDS011;11023;48.274;7.794;2023-05-20T04:24:00;8.60;;;6.00;;
21721;SDS011;11023;48.274;7.794;2023-05-20T04:26:26;11.50;;;6.75;;
21721;SDS011;11023;48.274;7.794;2023-05-20T04:28:52;10.60;;;5.78;;
21721;SDS011;11023;48.274;7.794;2023-05-20T04:31:19;8.32;;;5.68;;
21721;SDS011;11023;48.274;7.794;2023-05-20T04:33:50;12.65;;;6.15;;
21721;SDS011;11023;48.274;7.794;2023-05-20T04:36:19;8.23;;;5.72;;
21721;SDS011;11023;48.274;7.794;2023-05-20T04:38:44;7.47;;;5.40;;
21721;SDS011;11023;48.274;7.794;2023-05-20T04:41:12;7.78;;;5.40;;
21721;SDS011;11023;48.274;7.794;2023-05-20T04:43:40;9.52;;;5.68;;
21721;SDS011;11023;48.274;7.794;2023-05-20T04:46:06;8.30;;;5.60;;
21721;SDS011;11023;48.274;7.794;2023-05-20T04:48:32;9.60;;;5.75;;
21721;SDS011;11023;48.274;7.794;2023-05-20T04:50:58;8.02;;;5.40;;
21721;SDS011;11023;48.274;7.794;2023-05-20T04:53:24;8.88;;;5.70;;
21721;SDS011;11023;48.274;7.794;2023-05-20T04:55:53;10.13;;;5.15;;
21721;SDS011;11023;48.274;7.794;2023-05-20T04:58:22;8.48;;;5.57;;
21721;SDS011;11023;48.274;7.794;2023-05-20T05:00:51;8.88;;;5.78;;
21721;SDS011;11023;48.274;7.794;2023-05-20T05:03:17;10.88;;;6.03;;
21721;SDS011;11023;48.274;7.794;2023-05-20T05:05:42;8.23;;;5.75;;
21721;SDS011;11023;48.274;7.794;2023-05-20T05:08:09;7.10;;;5.35;;
21721;SDS011;11023;48.274;7.794;2023-05-20T05:10:37;10.38;;;5.22;;
21721;SDS011;11023;48.274;7.794;2023-05-20T05:13:03;11.60;;;5.20;;
21721;SDS011;11023;48.274;7.794;2023-05-20T05:15:29;13.27;;;5.15;;
21721;SDS011;11023;48.274;7.794;2023-05-20T05:17:55;10.43;;;5.88;;
21721;SDS011;11023;48.274;7.794;2023-05-20T05:20:20;9.35;;;5.32;;
21721;SDS011;11023;48.274;7.794;2023-05-20T05:22:46;8.32;;;5.00;;
21721;SDS011;11023;48.274;7.794;2023-05-20T05:25:15;8.98;;;5.25;;
21721;SDS011;11023;48.274;7.794;2023-05-20T05:27:41;6.60;;;5.05;;
21721;SDS011;11023;48.274;7.794;2023-05-20T05:30:08;7.85;;;4.75;;
21721;SDS011;11023;48.274;7.794;2023-05-20T05:32:35;9.93;;;5.78;;
21721;SDS011;11023;48.274;7.794;2023-05-20T05:35:01;9.27;;;5.68;;
21721;SDS011;11023;48.274;7.794;2023-05-20T05:37:26;8.13;;;5.43;;
21721;SDS011;11023;48.274;7.794;2023-05-20T05:39:52;9.85;;;5.15;;
21721;SDS011;11023;48.274;7.794;2023-05-20T05:42:18;11.40;;;5.25;;
21721;SDS011;11023;48.274;7.794;2023-05-20T05:44:43;8.50;;;5.93;;
21721;SDS011;11023;48.274;7.794;2023-05-20T05:47:09;8.38;;;5.38;;
21721;SDS011;11023;48.274;7.794;2023-05-20T05:49:35;10.55;;;5.05;;
21721;SDS011;11023;48.274;7.794;2023-05-20T05:52:01;9.77;;;5.25;;
21721;SDS011;11023;48.274;7.794;2023-05-20T05:54:26;8.50;;;5.00;;
21721;SDS011;11023;48.274;7.794;2023-05-20T05:56:52;9.80;;;4.88;;
21721;SDS011;11023;48.274;7.794;2023-05-20T05:59:20;6.47;;;5.00;;
21721;SDS011;11023;48.274;7.794;2023-05-20T06:01:46;10.77;;;5.20;;
21721;SDS011;11023;48.274;7.794;2023-05-20T06:04:12;8.75;;;4.97;;
21721;SDS011;11023;48.274;7.794;2023-05-20T06:06:37;8.20;;;5.00;;
21721;SDS011;11023;48.274;7.794;2023-05-20T06:09:03;10.48;;;5.47;;
21721;SDS011;11023;48.274;7.794;2023-05-20T06:11:29;6.93;;;4.47;;
21721;SDS011;11023;48.274;7.794;2023-05-20T06:13:54;9.00;;;4.95;;
21721;SDS011;11023;48.274;7.794;2023-05-20T06:16:20;8.48;;;4.65;;
21721;SDS011;11023;48.274;7.794;2023-05-20T06:18:46;9.05;;;4.72;;
21721;SDS011;11023;48.274;7.794;2023-05-20T06:21:14;8.52;;;4.57;;
21721;SDS011;11023;48.274;7.794;2023-05-20T06:23:40;9.05;;;5.55;;
21721;SDS011;11023;48.274;7.794;2023-05-20T06:26:06;8.82;;;5.25;;
21721;SDS011;11023;48.274;7.794;2023-05-20T06:28:31;9.77;;;5.10;;
21721;SDS011;11023;48.274;7.794;2023-05-20T06:30:57;6.95;;;4.65;;
21721;SDS011;11023;48.274;7.794;2023-05-20T06:33:23;8.80;;;5.07;;
21721;SDS011;11023;48.274;7.794;2023-05-20T06:35:53;8.88;;;5.05;;
21721;SDS011;11023;48.274;7.794;2023-05-20T06:38:19;8.02;;;4.93;;
21721;SDS011;11023;48.274;7.794;2023-05-20T06:40:45;10.43;;;4.70;;
21721;SDS011;11023;48.274;7.794;2023-05-20T06:43:13;8.18;;;4.40;;
21721;SDS011;11023;48.274;7.794;2023-05-20T06:45:39;6.35;;;4.40;;
21721;SDS011;11023;48.274;7.794;2023-05-20T06:48:04;7.95;;;4.88;;
21721;SDS011;11023;48.274;7.794;2023-05-20T06:50:30;10.57;;;4.90;;
21721;SDS011;11023;48.274;7.794;2023-05-20T06:52:56;6.55;;;4.47;;
21721;SDS011;11023;48.274;7.794;2023-05-20T06:55:21;10.20;;;4.55;;
21721;SDS011;11023;48.274;7.794;2023-05-20T06:57:47;10.48;;;4.57;;
21721;SDS011;11023;48.274;7.794;2023-05-20T07:00:13;7.55;;;4.20;;
21721;SDS011;11023;48.274;7.794;2023-05-20T07:02:38;6.13;;;4.30;;
21721;SDS011;11023;48.274;7.794;2023-05-20T07:05:04;8.15;;;4.00;;
21721;SDS011;11023;48.274;7.794;2023-05-20T07:07:30;7.13;;;4.22;;
21721;SDS011;11023;48.274;7.794;2023-05-20T07:09:56;6.60;;;3.97;;
21721;SDS011;11023;48.274;7.794;2023-05-20T07:12:22;6.07;;;4.50;;
21721;SDS011;11023;48.274;7.794;2023-05-20T07:14:48;5.40;;;4.53;;
21721;SDS011;11023;48.274;7.794;2023-05-20T07:17:14;8.02;;;4.20;;
21721;SDS011;11023;48.274;7.794;2023-05-20T07:19:40;5.50;;;4.00;;
21721;SDS011;11023;48.274;7.794;2023-05-20T07:22:06;7.53;;;4.70;;
21721;SDS011;11023;48.274;7.794;2023-05-20T07:24:32;7.80;;;4.18;;
21721;SDS011;11023;48.274;7.794;2023-05-20T07:26:57;8.10;;;4.30;;
21721;SDS011;11023;48.274;7.794;2023-05-20T07:29:23;8.00;;;4.53;;
21721;SDS011;11023;48.274;7.794;2023-05-20T07:31:49;7.28;;;4.43;;
21721;SDS011;11023;48.274;7.794;2023-05-20T07:34:14;10.88;;;4.20;;
21721;SDS011;11023;48.274;7.794;2023-05-20T07:36:40;7.22;;;4.47;;
21721;SDS011;11023;48.274;7.794;2023-05-20T07:39:07;9.85;;;4.70;;
21721;SDS011;11023;48.274;7.794;2023-05-20T07:41:34;6.00;;;4.50;;
21721;SDS011;11023;48.274;7.794;2023-05-20T07:44:01;7.18;;;4.13;;
21721;SDS011;11023;48.274;7.794;2023-05-20T07:46:28;6.32;;;4.53;;
21721;SDS011;11023;48.274;7.794;2023-05-20T07:48:54;6.82;;;4.10;;
21721;SDS011;11023;48.274;7.794;2023-05-20T07:51:20;7.60;;;4.43;;
21721;SDS011;11023;48.274;7.794;2023-05-20T07:53:46;6.47;;;4.43;;
21721;SDS011;11023;48.274;7.794;2023-05-20T07:56:11;6.80;;;4.40;;
21721;SDS011;11023;48.274;7.794;2023-05-20T07:58:39;5.68;;;4.55;;
21721;SDS011;11023;48.274;7.794;2023-05-20T08:01:05;7.10;;;4.15;;
21721;SDS011;11023;48.274;7.794;2023-05-20T08:03:33;7.57;;;4.57;;
21721;SDS011;11023;48.274;7.794;2023-05-20T08:06:00;6.13;;;3.90;;
21721;SDS011;11023;48.274;7.794;2023-05-20T08:08:26;7.13;;;4.60;;
21721;SDS011;11023;48.274;7.794;2023-05-20T08:10:54;9.02;;;4.55;;
21721;SDS011;11023;48.274;7.794;2023-05-20T08:13:20;7.00;;;5.15;;
21721;SDS011;11023;48.274;7.794;2023-05-20T08:15:46;6.18;;;4.35;;
21721;SDS011;11023;48.274;7.794;2023-05-20T08:18:13;7.70;;;4.40;;
21721;SDS011;11023;48.274;7.794;2023-05-20T08:20:39;5.78;;;4.20;;
21721;SDS011;11023;48.274;7.794;2023-05-20T08:23:06;9.27;;;4.50;;
21721;SDS011;11023;48.274;7.794;2023-05-20T08:25:31;6.80;;;4.53;;
21721;SDS011;11023;48.274;7.794;2023-05-20T08:28:00;6.25;;;4.30;;
21721;SDS011;11023;48.274;7.794;2023-05-20T08:30:27;8.18;;;4.32;;
21721;SDS011;11023;48.274;7.794;2023-05-20T08:32:53;5.68;;;4.53;;
21721;SDS011;11023;48.274;7.794;2023-05-20T08:35:19;6.22;;;4.38;;
21721;SDS011;11023;48.274;7.794;2023-05-20T08:37:44;4.82;;;4.32;;
21721;SDS011;11023;48.274;7.794;2023-05-20T08:40:11;5.53;;;4.35;;
21721;SDS011;11023;48.274;7.794;2023-05-20T08:42:39;7.60;;;4.32;;
21721;SDS011;11023;48.274;7.794;2023-05-20T08:45:06;7.30;;;4.43;;
21721;SDS011;11023;48.274;7.794;2023-05-20T08:47:35;5.97;;;4.65;;
21721;SDS011;11023;48.274;7.794;2023-05-20T08:50:03;5.38;;;4.40;;
21721;SDS011;11023;48.274;7.794;2023-05-20T08:52:29;7.75;;;4.60;;
21721;SDS011;11023;48.274;7.794;2023-05-20T08:54:58;7.60;;;4.97;;
21721;SDS011;11023;48.274;7.794;2023-05-20T08:57:24;7.35;;;4.53;;
21721;SDS011;11023;48.274;7.794;2023-05-20T08:59:51;7.20;;;4.40;;
21721;SDS011;11023;48.274;7.794;2023-05-20T09:02:17;10.70;;;4.95;;
21721;SDS011;11023;48.274;7.794;2023-05-20T09:04:43;7.90;;;4.63;;
21721;SDS011;11023;48.274;7.794;2023-05-20T09:07:09;9.90;;;4.75;;
21721;SDS011;11023;48.274;7.794;2023-05-20T09:09:34;6.97;;;4.50;;
21721;SDS011;11023;48.274;7.794;2023-05-20T09:12:01;7.60;;;5.35;;
21721;SDS011;11023;48.274;7.794;2023-05-20T09:14:28;6.22;;;4.90;;
21721;SDS011;11023;48.274;7.794;2023-05-20T09:16:54;6.57;;;4.53;;
21721;SDS011;11023;48.274;7.794;2023-05-20T09:19:23;6.47;;;4.85;;
21721;SDS011;11023;48.274;7.794;2023-05-20T09:21:51;6.00;;;4.20;;
21721;SDS011;11023;48.274;7.794;2023-05-20T09:24:25;10.10;;;5.35;;
21721;SDS011;11023;48.274;7.794;2023-05-20T09:26:51;6.30;;;5.05;;
21721;SDS011;11023;48.274;7.794;2023-05-20T09:29:17;6.40;;;4.50;;
21721;SDS011;11023;48.274;7.794;2023-05-20T09:35:26;6.97;;;5.20;;
21721;SDS011;11023;48.274;7.794;2023-05-20T09:37:53;5.15;;;4.25;;
21721;SDS011;11023;48.274;7.794;2023-05-20T09:40:24;7.72;;;4.63;;
21721;SDS011;11023;48.274;7.794;2023-05-20T09:43:04;7.13;;;4.28;;
21721;SDS011;11023;48.274;7.794;2023-05-20T09:45:35;6.90;;;4.65;;
21721;SDS011;11023;48.274;7.794;2023-05-20T09:48:02;5.20;;;4.70;;
21721;SDS011;11023;48.274;7.794;2023-05-20T09:50:29;6.70;;;4.80;;
21721;SDS011;11023;48.274;7.794;2023-05-20T09:52:56;6.38;;;4.60;;
21721;SDS011;11023;48.274;7.794;2023-05-20T09:55:26;5.35;;;4.70;;
21721;SDS011;11023;48.274;7.794;2023-05-20T09:57:53;5.78;;;4.68;;
21721;SDS011;11023;48.274;7.794;2023-05-20T10:00:20;6.10;;;5.18;;
21721;SDS011;11023;48.274;7.794;2023-05-20T10:02:49;5.65;;;4.78;;
21721;SDS011;11023;48.274;7.794;2023-05-20T10:16:28;8.73;;;5.45;;
21721;SDS011;11023;48.274;7.794;2023-05-20T10:19:40;8.75;;;5.68;;
21721;SDS011;11023;48.274;7.794;2023-05-20T10:21:59;7.15;;;4.75;;
21721;SDS011;11023;48.274;7.794;2023-05-20T10:24:33;8.50;;;4.93;;
21721;SDS011;11023;48.274;7.794;2023-05-20T10:27:02;8.10;;;5.47;;
21721;SDS011;11023;48.274;7.794;2023-05-20T10:29:29;6.03;;;4.82;;
21721;SDS011;11023;48.274;7.794;2023-05-20T10:32:07;7.13;;;4.78;;
21721;SDS011;11023;48.274;7.794;2023-05-20T10:34:43;5.28;;;4.43;;
21721;SDS011;11023;48.274;7.794;2023-05-20T10:37:29;5.57;;;4.90;;
21721;SDS011;11023;48.274;7.794;2023-05-20T10:40:06;8.45;;;5.15;;
21721;SDS011;11023;48.274;7.794;2023-05-20T10:42:36;6.53;;;5.35;;
21721;SDS011;11023;48.274;7.794;2023-05-20T10:45:01;8.65;;;5.18;;
21721;SDS011;11023;48.274;7.794;2023-05-20T10:47:28;6.22;;;4.80;;
21721;SDS011;11023;48.274;7.794;2023-05-20T10:49:55;5.75;;;4.65;;
21721;SDS011;11023;48.274;7.794;2023-05-20T10:52:20;5.70;;;4.72;;
21721;SDS011;11023;48.274;7.794;2023-05-20T10:54:57;9.00;;;5.25;;
21721;SDS011;11023;48.274;7.794;2023-05-20T10:57:25;8.90;;;5.10;;
21721;SDS011;11023;48.274;7.794;2023-05-20T10:59:52;6.35;;;5.32;;
21721;SDS011;11023;48.274;7.794;2023-05-20T11:02:18;6.25;;;5.30;;
21721;SDS011;11023;48.274;7.794;2023-05-20T11:04:50;8.35;;;4.70;;
21721;SDS011;11023;48.274;7.794;2023-05-20T11:07:26;7.38;;;5.72;;
21721;SDS011;11023;48.274;7.794;2023-05-20T11:09:53;4.80;;;4.22;;
21721;SDS011;11023;48.274;7.794;2023-05-20T11:12:25;7.88;;;5.47;;
21721;SDS011;11023;48.274;7.794;2023-05-20T11:14:52;6.93;;;5.57;;
21721;SDS011;11023;48.274;7.794;2023-05-20T11:17:18;7.07;;;6.03;;
21721;SDS011;11023;48.274;7.794;2023-05-20T11:19:44;7.97;;;5.28;;
21721;SDS011;11023;48.274;7.794;2023-05-20T11:22:11;6.97;;;5.10;;
21721;SDS011;11023;48.274;7.794;2023-05-20T11:24:37;6.75;;;5.75;;
21721;SDS011;11023;48.274;7.794;2023-05-20T11:27:02;7.88;;;5.85;;
21721;SDS011;11023;48.274;7.794;2023-05-20T11:29:29;6.80;;;5.40;;
21721;SDS011;11023;48.274;7.794;2023-05-20T11:31:56;7.45;;;4.90;;
21721;SDS011;11023;48.274;7.794;2023-05-20T11:34:23;6.47;;;5.53;;
21721;SDS011;11023;48.274;7.794;2023-05-20T11:36:55;6.30;;;4.90;;
21721;SDS011;11023;48.274;7.794;2023-05-20T11:39:22;7.85;;;5.47;;
21721;SDS011;11023;48.274;7.794;2023-05-20T11:41:48;8.95;;;5.13;;
21721;SDS011;11023;48.274;7.794;2023-05-20T11:44:14;7.25;;;5.28;;
21721;SDS011;11023;48.274;7.794;2023-05-20T11:46:45;5.93;;;5.28;;
21721;SDS011;11023;48.274;7.794;2023-05-20T11:49:11;6.43;;;5.07;;
21721;SDS011;11023;48.274;7.794;2023-05-20T11:51:38;6.20;;;4.78;;
21721;SDS011;11023;48.274;7.794;2023-05-20T11:54:05;5.93;;;4.78;;
21721;SDS011;11023;48.274;7.794;2023-05-20T11:56:38;5.45;;;4.72;;
21721;SDS011;11023;48.274;7.794;2023-05-20T11:59:05;6.63;;;4.57;;
21721;SDS011;11023;48.274;7.794;2023-05-20T12:01:37;5.78;;;4.20;;
21721;SDS011;11023;48.274;7.794;2023-05-20T12:06:40;4.95;;;4.40;;
21721;SDS011;11023;48.274;7.794;2023-05-20T12:09:06;6.53;;;4.78;;
21721;SDS011;11023;48.274;7.794;2023-05-20T12:11:36;4.93;;;4.43;;
21721;SDS011;11023;48.274;7.794;2023-05-20T12:14:06;6.18;;;4.68;;
21721;SDS011;11023;48.274;7.794;2023-05-20T12:16:32;7.20;;;4.88;;
21721;SDS011;11023;48.274;7.794;2023-05-20T12:18:59;5.07;;;4.05;;
21721;SDS011;11023;48.274;7.794;2023-05-20T12:21:25;8.65;;;4.65;;
21721;SDS011;11023;48.274;7.794;2023-05-20T12:23:52;8.25;;;4.85;;
21721;SDS011;11023;48.274;7.794;2023-05-20T12:26:25;6.60;;;5.00;;
21721;SDS011;11023;48.274;7.794;2023-05-20T12:28:51;7.13;;;4.65;;
21721;SDS011;11023;48.274;7.794;2023-05-20T12:31:18;6.15;;;4.97;;
21721;SDS011;11023;48.274;7.794;2023-05-20T12:33:44;5.95;;;4.65;;
21721;SDS011;11023;48.274;7.794;2023-05-20T12:36:10;5.05;;;4.18;;
21721;SDS011;11023;48.274;7.794;2023-05-20T12:38:35;6.47;;;4.80;;
21721;SDS011;11023;48.274;7.794;2023-05-20T12:41:01;6.32;;;4.80;;
21721;SDS011;11023;48.274;7.794;2023-05-20T12:43:27;6.30;;;4.72;;
21721;SDS011;11023;48.274;7.794;2023-05-20T12:45:52;7.20;;;5.00;;
21721;SDS011;11023;48.274;7.794;2023-05-20T12:48:18;5.78;;;4.97;;
21721;SDS011;11023;48.274;7.794;2023-05-20T12:50:44;5.97;;;4.28;;
21721;SDS011;11023;48.274;7.794;2023-05-20T12:53:09;7.50;;;4.38;;
21721;SDS011;11023;48.274;7.794;2023-05-20T12:55:35;5.13;;;4.63;;
21721;SDS011;11023;48.274;7.794;2023-05-20T12:58:02;4.72;;;4.30;;
21721;SDS011;11023;48.274;7.794;2023-05-20T13:00:28;8.73;;;4.50;;
21721;SDS011;11023;48.274;7.794;2023-05-20T13:02:54;4.82;;;4.07;;
21721;SDS011;11023;48.274;7.794;2023-05-20T13:05:21;5.28;;;4.45;;
21721;SDS011;11023;48.274;7.794;2023-05-20T13:07:47;7.53;;;4.38;;
21721;SDS011;11023;48.274;7.794;2023-05-20T13:10:13;8.40;;;4.55;;
21721;SDS011;11023;48.274;7.794;2023-05-20T13:12:38;6.43;;;4.18;;
21721;SDS011;11023;48.274;7.794;2023-05-20T13:15:09;6.93;;;4.22;;
21721;SDS011;11023;48.274;7.794;2023-05-20T13:17:38;5.07;;;4.47;;
21721;SDS011;11023;48.274;7.794;2023-05-20T13:20:07;4.68;;;4.18;;
21721;SDS011;11023;48.274;7.794;2023-05-20T13:22:35;6.57;;;4.13;;
21721;SDS011;11023;48.274;7.794;2023-05-20T13:25:00;7.00;;;3.97;;
21721;SDS011;11023;48.274;7.794;2023-05-20T13:27:26;5.72;;;4.20;;
21721;SDS011;11023;48.274;7.794;2023-05-20T13:29:52;6.07;;;4.50;;
21721;SDS011;11023;48.274;7.794;2023-05-20T13:32:18;5.43;;;4.30;;
21721;SDS011;11023;48.274;7.794;2023-05-20T13:34:43;4.60;;;4.20;;
21721;SDS011;11023;48.274;7.794;2023-05-20T13:37:09;9.35;;;4.10;;
21721;SDS011;11023;48.274;7.794;2023-05-20T13:39:35;4.15;;;3.63;;
21721;SDS011;11023;48.274;7.794;2023-05-20T13:42:01;4.00;;;3.30;;
21721;SDS011;11023;48.274;7.794;2023-05-20T13:44:28;5.32;;;3.90;;
21721;SDS011;11023;48.274;7.794;2023-05-20T13:46:54;8.85;;;4.30;;
21721;SDS011;11023;48.274;7.794;2023-05-20T13:49:20;6.93;;;4.20;;
21721;SDS011;11023;48.274;7.794;2023-05-20T13:51:46;6.43;;;4.00;;
21721;SDS011;11023;48.274;7.794;2023-05-20T13:54:11;5.75;;;3.85;;
21721;SDS011;11023;48.274;7.794;2023-05-20T13:56:37;4.45;;;3.80;;
21721;SDS011;11023;48.274;7.794;2023-05-20T13:59:03;5.30;;;3.75;;
21721;SDS011;11023;48.274;7.794;2023-05-20T14:01:29;4.78;;;3.83;;
21721;SDS011;11023;48.274;7.794;2023-05-20T14:03:57;5.90;;;3.65;;
21721;SDS011;11023;48.274;7.794;2023-05-20T14:06:23;4.50;;;4.10;;
21721;SDS011;11023;48.274;7.794;2023-05-20T14:08:49;4.50;;;4.10;;
21721;SDS011;11023;48.274;7.794;2023-05-20T14:11:14;6.75;;;4.10;;
21721;SDS011;11023;48.274;7.794;2023-05-20T14:13:40;7.50;;;3.70;;
21721;SDS011;11023;48.274;7.794;2023-05-20T14:16:06;5.47;;;3.80;;
21721;SDS011;11023;48.274;7.794;2023-05-20T14:18:32;3.70;;;3.33;;
21721;SDS011;11023;48.274;7.794;2023-05-20T14:20:57;4.40;;;3.70;;
21721;SDS011;11023;48.274;7.794;2023-05-20T14:23:23;5.38;;;3.70;;
21721;SDS011;11023;48.274;7.794;2023-05-20T14:25:48;5.18;;;3.63;;
21721;SDS011;11023;48.274;7.794;2023-05-20T14:28:14;5.00;;;3.58;;
21721;SDS011;11023;48.274;7.794;2023-05-20T14:30:40;5.25;;;3.78;;
21721;SDS011;11023;48.274;7.794;2023-05-20T14:33:05;5.20;;;3.70;;
21721;SDS011;11023;48.274;7.794;2023-05-20T14:35:31;5.65;;;3.60;;
21721;SDS011;11023;48.274;7.794;2023-05-20T14:37:56;6.85;;;3.90;;
21721;SDS011;11023;48.274;7.794;2023-05-20T14:40:23;4.30;;;3.90;;
21721;SDS011;11023;48.274;7.794;2023-05-20T14:42:48;6.68;;;4.00;;
21721;SDS011;11023;48.274;7.794;2023-05-20T14:45:14;6.63;;;4.05;;
21721;SDS011;11023;48.274;7.794;2023-05-20T14:47:39;4.40;;;4.00;;
21721;SDS011;11023;48.274;7.794;2023-05-20T14:50:05;4.57;;;4.18;;
21721;SDS011;11023;48.274;7.794;2023-05-20T14:52:31;10.85;;;4.15;;
21721;SDS011;11023;48.274;7.794;2023-05-20T14:54:57;5.40;;;3.95;;
21721;SDS011;11023;48.274;7.794;2023-05-20T14:57:23;6.90;;;4.10;;
21721;SDS011;11023;48.274;7.794;2023-05-20T14:59:48;6.22;;;4.10;;